sensor_id;sensor_type;location;lat;lon;timestamp;pressure;altitude;pressure_sealevel;temperature;humidity
46111;BME280;31849;55.992;37.252;2023-05-07T00:04:21;100140.44;;;0.28;52.93
46111;BME280;31849;55.992;37.252;2023-05-07T00:09:25;100132.50;;;0.24;52.94
46111;BME280;31849;55.992;37.252;2023-05-07T00:14:28;100142.03;;;0.26;53.08
46111;BME280;31849;55.992;37.252;2023-05-07T00:19:33;100140.19;;;0.24;53.17
46111;BME280;31849;55.992;37.252;2023-05-07T00:24:36;100144.28;;;0.20;52.74
46111;BME280;31849;55.992;37.252;2023-05-07T00:29:40;100142.13;;;0.11;52.65
46111;BME280;31849;55.992;37.252;2023-05-07T00:34:45;100148.03;;;0.10;53.34
46111;BME280;31849;55.992;37.252;2023-05-07T00:39:48;100150.53;;;0.09;52.91
46111;BME280;31849;55.992;37.252;2023-05-07T00:44:51;100117.56;;;-0.20;53.48
46111;BME280;31849;55.992;37.252;2023-05-07T00:49:57;100156.09;;;0.00;53.12
46111;BME280;31849;55.992;37.252;2023-05-07T00:55:05;100158.44;;;-0.03;53.48
46111;BME280;31849;55.992;37.252;2023-05-07T01:00:10;100160.84;;;-0.06;53.87
46111;BME280;31849;55.992;37.252;2023-05-07T01:05:17;100163.31;;;-0.08;53.88
46111;BME280;31849;55.992;37.252;2023-05-07T01:10:23;100156.31;;;-0.12;54.26
46111;BME280;31849;55.992;37.252;2023-05-07T01:15:27;100157.91;;;-0.14;53.99
46111;BME280;31849;55.992;37.252;2023-05-07T01:20:32;100161.25;;;-0.15;53.75
46111;BME280;31849;55.992;37.252;2023-05-07T01:25:37;100162.00;;;-0.17;53.90
46111;BME280;31849;55.992;37.252;2023-05-07T01:30:40;100168.06;;;-0.15;54.64
46111;BME280;31849;55.992;37.252;2023-05-07T01:35:46;100160.63;;;-0.27;54.27
46111;BME280;31849;55.992;37.252;2023-05-07T01:40:52;100169.59;;;-0.19;54.37
46111;BME280;31849;55.992;37.252;2023-05-07T01:45:57;100172.22;;;-0.17;54.20
46111;BME280;31849;55.992;37.252;2023-05-07T01:51:02;100177.09;;;-0.22;54.56
46111;BME280;31849;55.992;37.252;2023-05-07T01:56:07;100192.28;;;-0.09;54.26
46111;BME280;31849;55.992;37.252;2023-05-07T02:01:11;100203.13;;;-0.13;54.25
46111;BME280;31849;55.992;37.252;2023-05-07T02:06:14;100197.94;;;-0.14;54.31
46111;BME280;31849;55.992;37.252;2023-05-07T02:11:19;100206.72;;;-0.09;54.43
46111;BME280;31849;55.992;37.252;2023-05-07T02:16:22;100205.75;;;0.05;54.09
46111;BME280;31849;55.992;37.252;2023-05-07T02:21:26;100211.75;;;0.06;54.39
46111;BME280;31849;55.992;37.252;2023-05-07T02:26:33;100216.75;;;0.21;54.27
46111;BME280;31849;55.992;37.252;2023-05-07T02:31:37;100216.75;;;0.21;54.04
46111;BME280;31849;55.992;37.252;2023-05-07T02:36:40;100230.84;;;0.29;54.36
46111;BME280;31849;55.992;37.252;2023-05-07T02:41:45;100233.78;;;0.37;54.11
46111;BME280;31849;55.992;37.252;2023-05-07T02:46:48;100236.88;;;0.47;53.85
46111;BME280;31849;55.992;37.252;2023-05-07T02:51:52;100241.34;;;0.51;54.11
46111;BME280;31849;55.992;37.252;2023-05-07T02:56:57;100246.44;;;0.68;54.09
46111;BME280;31849;55.992;37.252;2023-05-07T03:02:02;100242.72;;;0.79;53.92
46111;BME280;31849;55.992;37.252;2023-05-07T03:07:06;100249.34;;;1.28;53.60
46111;BME280;31849;55.992;37.252;2023-05-07T03:12:11;100252.28;;;1.73;52.35
46111;BME280;31849;55.992;37.252;2023-05-07T03:17:14;100261.09;;;1.79;52.69
46111;BME280;31849;55.992;37.252;2023-05-07T03:22:18;100257.22;;;2.26;51.52
46111;BME280;31849;55.992;37.252;2023-05-07T03:27:23;100271.91;;;2.30;51.40
46111;BME280;31849;55.992;37.252;2023-05-07T03:32:27;100280.84;;;2.38;51.46
46111;BME280;31849;55.992;37.252;2023-05-07T03:37:31;100277.97;;;2.92;50.04
46111;BME280;31849;55.992;37.252;2023-05-07T03:42:36;100279.22;;;3.90;48.59
46111;BME280;31849;55.992;37.252;2023-05-07T03:47:39;100280.59;;;7.10;42.71
46111;BME280;31849;55.992;37.252;2023-05-07T03:52:42;100261.94;;;12.06;33.78
46111;BME280;31849;55.992;37.252;2023-05-07T03:57:48;100274.88;;;15.64;28.74
46111;BME280;31849;55.992;37.252;2023-05-07T04:02:51;100281.97;;;17.52;26.11
46111;BME280;31849;55.992;37.252;2023-05-07T04:07:55;100283.88;;;19.14;23.75
46111;BME280;31849;55.992;37.252;2023-05-07T04:13:00;100278.19;;;20.29;21.97
46111;BME280;31849;55.992;37.252;2023-05-07T04:18:03;100281.84;;;21.38;20.54
46111;BME280;31849;55.992;37.252;2023-05-07T04:23:07;100291.94;;;22.51;19.43
46111;BME280;31849;55.992;37.252;2023-05-07T04:28:12;100291.47;;;23.71;18.33
46111;BME280;31849;55.992;37.252;2023-05-07T04:33:16;100295.56;;;24.57;16.98
46111;BME280;31849;55.992;37.252;2023-05-07T04:38:20;100300.69;;;25.35;16.24
46111;BME280;31849;55.992;37.252;2023-05-07T04:43:26;100301.16;;;26.45;15.33
46111;BME280;31849;55.992;37.252;2023-05-07T04:48:30;100305.34;;;27.29;14.59
46111;BME280;31849;55.992;37.252;2023-05-07T04:53:33;100300.81;;;28.48;13.32
46111;BME280;31849;55.992;37.252;2023-05-07T04:58:38;100312.63;;;29.55;12.55
46111;BME280;31849;55.992;37.252;2023-05-07T05:03:42;100290.03;;;29.59;12.56
46111;BME280;31849;55.992;37.252;2023-05-07T05:08:45;100307.94;;;29.04;12.26
46111;BME280;31849;55.992;37.252;2023-05-07T05:13:50;100316.28;;;30.18;11.55
46111;BME280;31849;55.992;37.252;2023-05-07T05:18:54;100309.22;;;30.80;10.82
46111;BME280;31849;55.992;37.252;2023-05-07T05:23:58;100316.81;;;31.34;10.71
46111;BME280;31849;55.992;37.252;2023-05-07T05:29:03;100312.00;;;32.32;10.05
46111;BME280;31849;55.992;37.252;2023-05-07T05:34:07;100321.13;;;31.37;10.75
46111;BME280;31849;55.992;37.252;2023-05-07T05:39:10;100312.47;;;30.72;10.84
46111;BME280;31849;55.992;37.252;2023-05-07T05:44:16;100319.09;;;31.52;9.69
46111;BME280;31849;55.992;37.252;2023-05-07T05:49:19;100318.88;;;30.82;10.65
46111;BME280;31849;55.992;37.252;2023-05-07T05:54:22;100319.53;;;30.36;10.13
46111;BME280;31849;55.992;37.252;2023-05-07T05:59:27;100318.41;;;26.88;11.57
46111;BME280;31849;55.992;37.252;2023-05-07T06:04:31;100326.38;;;27.80;11.25
46111;BME280;31849;55.992;37.252;2023-05-07T06:09:35;100326.38;;;24.23;12.95
46111;BME280;31849;55.992;37.252;2023-05-07T06:14:40;100319.91;;;20.47;15.45
46111;BME280;31849;55.992;37.252;2023-05-07T06:19:45;100326.41;;;20.95;15.34
46111;BME280;31849;55.992;37.252;2023-05-07T06:24:49;100318.47;;;22.95;14.08
46111;BME280;31849;55.992;37.252;2023-05-07T06:29:54;100322.28;;;23.55;13.84
46111;BME280;31849;55.992;37.252;2023-05-07T06:34:58;100325.31;;;23.66;13.56
46111;BME280;31849;55.992;37.252;2023-05-07T06:40:02;100329.31;;;20.58;15.26
46111;BME280;31849;55.992;37.252;2023-05-07T06:45:08;100332.75;;;23.99;12.42
46111;BME280;31849;55.992;37.252;2023-05-07T06:50:12;100321.13;;;24.22;12.41
46111;BME280;31849;55.992;37.252;2023-05-07T06:55:18;100335.22;;;21.76;13.75
46111;BME280;31849;55.992;37.252;2023-05-07T07:00:23;100332.03;;;24.16;12.40
46111;BME280;31849;55.992;37.252;2023-05-07T07:05:27;100336.63;;;23.28;13.15
46111;BME280;31849;55.992;37.252;2023-05-07T07:10:30;100327.56;;;20.56;14.54
46111;BME280;31849;55.992;37.252;2023-05-07T07:15:35;100333.16;;;17.81;16.12
46111;BME280;31849;55.992;37.252;2023-05-07T07:20:39;100334.81;;;17.87;16.57
46111;BME280;31849;55.992;37.252;2023-05-07T07:25:42;100339.91;;;17.46;16.68
46111;BME280;31849;55.992;37.252;2023-05-07T07:30:47;100337.63;;;18.24;16.57
46111;BME280;31849;55.992;37.252;2023-05-07T07:35:51;100324.16;;;23.30;13.07
46111;BME280;31849;55.992;37.252;2023-05-07T07:40:55;100323.91;;;20.90;14.03
46111;BME280;31849;55.992;37.252;2023-05-07T07:46:00;100329.13;;;18.12;16.01
46111;BME280;31849;55.992;37.252;2023-05-07T07:51:04;100325.25;;;16.72;16.63
46111;BME280;31849;55.992;37.252;2023-05-07T07:56:07;100320.59;;;17.49;16.20
46111;BME280;31849;55.992;37.252;2023-05-07T08:01:12;100305.22;;;21.23;13.32
46111;BME280;31849;55.992;37.252;2023-05-07T08:06:16;100308.22;;;23.94;11.22
46111;BME280;31849;55.992;37.252;2023-05-07T08:11:19;100316.41;;;23.89;10.97
46111;BME280;31849;55.992;37.252;2023-05-07T08:16:24;100319.44;;;20.93;13.55
46111;BME280;31849;55.992;37.252;2023-05-07T08:21:28;100305.66;;;17.99;15.48
46111;BME280;31849;55.992;37.252;2023-05-07T08:26:35;100316.66;;;15.86;17.26
46111;BME280;31849;55.992;37.252;2023-05-07T08:31:42;100320.44;;;15.51;17.27
46111;BME280;31849;55.992;37.252;2023-05-07T08:36:46;100302.25;;;16.24;16.64
46111;BME280;31849;55.992;37.252;2023-05-07T08:41:53;100318.72;;;15.50;17.30
46111;BME280;31849;55.992;37.252;2023-05-07T08:47:01;100319.03;;;15.10;17.75
46111;BME280;31849;55.992;37.252;2023-05-07T08:52:05;100313.28;;;14.38;18.54
46111;BME280;31849;55.992;37.252;2023-05-07T08:57:11;100316.97;;;13.94;19.07
46111;BME280;31849;55.992;37.252;2023-05-07T09:02:16;100311.47;;;14.67;18.54
46111;BME280;31849;55.992;37.252;2023-05-07T09:07:20;100311.22;;;15.07;17.55
46111;BME280;31849;55.992;37.252;2023-05-07T09:12:24;100293.13;;;15.80;17.13
46111;BME280;31849;55.992;37.252;2023-05-07T09:17:29;100309.84;;;15.65;16.97
46111;BME280;31849;55.992;37.252;2023-05-07T09:22:33;100302.66;;;14.75;17.72
46111;BME280;31849;55.992;37.252;2023-05-07T09:27:37;100312.50;;;14.13;18.45
46111;BME280;31849;55.992;37.252;2023-05-07T09:32:42;100316.09;;;13.86;18.58
46111;BME280;31849;55.992;37.252;2023-05-07T09:37:45;100304.53;;;14.46;18.46
46111;BME280;31849;55.992;37.252;2023-05-07T09:42:49;100294.00;;;14.66;17.88
46111;BME280;31849;55.992;37.252;2023-05-07T09:47:56;100293.13;;;14.70;18.27
46111;BME280;31849;55.992;37.252;2023-05-07T09:53:00;100296.56;;;14.76;17.55
46111;BME280;31849;55.992;37.252;2023-05-07T09:58:04;100305.44;;;14.45;18.34
46111;BME280;31849;55.992;37.252;2023-05-07T10:03:11;100303.09;;;13.35;18.89
46111;BME280;31849;55.992;37.252;2023-05-07T10:08:16;100305.66;;;13.12;19.67
46111;BME280;31849;55.992;37.252;2023-05-07T10:13:21;100306.53;;;13.25;19.25
46111;BME280;31849;55.992;37.252;2023-05-07T10:18:26;100303.09;;;13.41;19.28
46111;BME280;31849;55.992;37.252;2023-05-07T10:23:32;100299.56;;;13.19;19.88
46111;BME280;31849;55.992;37.252;2023-05-07T10:28:37;100304.75;;;12.97;19.46
46111;BME280;31849;55.992;37.252;2023-05-07T10:33:45;100299.56;;;13.25;19.24
46111;BME280;31849;55.992;37.252;2023-05-07T10:38:49;100308.28;;;13.02;20.32
46111;BME280;31849;55.992;37.252;2023-05-07T10:43:53;100303.94;;;13.18;20.02
46111;BME280;31849;55.992;37.252;2023-05-07T10:49:19;100310.06;;;13.39;19.78
46111;BME280;31849;55.992;37.252;2023-05-07T10:54:25;100307.38;;;13.90;19.95
46111;BME280;31849;55.992;37.252;2023-05-07T10:59:35;100283.78;;;14.02;19.75
46111;BME280;31849;55.992;37.252;2023-05-07T11:05:21;100300.34;;;14.09;18.97
46111;BME280;31849;55.992;37.252;2023-05-07T11:10:47;100300.38;;;13.94;18.86
46111;BME280;31849;55.992;37.252;2023-05-07T11:15:51;100296.13;;;13.39;19.54
46111;BME280;31849;55.992;37.252;2023-05-07T11:20:58;100296.06;;;13.03;20.05
46111;BME280;31849;55.992;37.252;2023-05-07T11:26:03;100303.91;;;12.91;20.08
46111;BME280;31849;55.992;37.252;2023-05-07T11:31:07;100301.19;;;12.51;20.65
46111;BME280;31849;55.992;37.252;2023-05-07T11:36:13;100314.22;;;12.47;20.35
46111;BME280;31849;55.992;37.252;2023-05-07T11:41:17;100300.34;;;12.55;20.79
46111;BME280;31849;55.992;37.252;2023-05-07T11:46:23;100304.63;;;12.37;21.45
46111;BME280;31849;55.992;37.252;2023-05-07T11:51:28;100307.13;;;12.12;21.24
46111;BME280;31849;55.992;37.252;2023-05-07T11:56:34;100306.25;;;12.10;21.13
46111;BME280;31849;55.992;37.252;2023-05-07T12:01:38;100304.53;;;12.17;21.15
46111;BME280;31849;55.992;37.252;2023-05-07T12:06:43;100295.06;;;12.39;20.88
46111;BME280;31849;55.992;37.252;2023-05-07T12:11:46;100286.47;;;12.77;20.77
46111;BME280;31849;55.992;37.252;2023-05-07T12:16:50;100301.03;;;12.07;20.71
46111;BME280;31849;55.992;37.252;2023-05-07T12:21:55;100287.81;;;11.83;20.90
46111;BME280;31849;55.992;37.252;2023-05-07T12:27:00;100292.03;;;11.62;21.31
46111;BME280;31849;55.992;37.252;2023-05-07T12:32:03;100287.63;;;11.52;21.25
46111;BME280;31849;55.992;37.252;2023-05-07T12:37:09;100292.00;;;11.54;21.25
46111;BME280;31849;55.992;37.252;2023-05-07T12:42:15;100292.75;;;11.41;21.63
46111;BME280;31849;55.992;37.252;2023-05-07T12:47:20;100292.63;;;11.19;22.00
46111;BME280;31849;55.992;37.252;2023-05-07T12:52:25;100281.25;;;11.11;22.07
46111;BME280;31849;55.992;37.252;2023-05-07T12:57:29;100290.94;;;11.31;22.02
46111;BME280;31849;55.992;37.252;2023-05-07T13:02:33;100278.81;;;11.31;22.12
46111;BME280;31849;55.992;37.252;2023-05-07T13:07:39;100275.28;;;11.26;21.92
46111;BME280;31849;55.992;37.252;2023-05-07T13:12:43;100276.16;;;11.25;21.73
46111;BME280;31849;55.992;37.252;2023-05-07T13:17:47;100270.13;;;11.32;21.92
46111;BME280;31849;55.992;37.252;2023-05-07T13:22:52;100266.88;;;11.61;21.33
46111;BME280;31849;55.992;37.252;2023-05-07T13:27:56;100278.31;;;11.88;21.48
46111;BME280;31849;55.992;37.252;2023-05-07T13:33:11;100267.00;;;11.90;20.84
46111;BME280;31849;55.992;37.252;2023-05-07T13:38:16;100279.25;;;11.94;20.79
46111;BME280;31849;55.992;37.252;2023-05-07T13:43:20;100275.69;;;11.85;21.05
46111;BME280;31849;55.992;37.252;2023-05-07T13:48:23;100278.25;;;11.78;21.08
46111;BME280;31849;55.992;37.252;2023-05-07T13:53:28;100286.94;;;11.76;21.15
46111;BME280;31849;55.992;37.252;2023-05-07T13:58:31;100287.75;;;11.66;21.04
46111;BME280;31849;55.992;37.252;2023-05-07T14:03:35;100284.16;;;11.51;21.41
46111;BME280;31849;55.992;37.252;2023-05-07T14:08:41;100284.16;;;11.48;21.01
46111;BME280;31849;55.992;37.252;2023-05-07T14:13:44;100290.94;;;11.31;21.48
46111;BME280;31849;55.992;37.252;2023-05-07T14:18:48;100295.06;;;11.04;22.02
46111;BME280;31849;55.992;37.252;2023-05-07T14:23:53;100291.63;;;11.08;21.74
46111;BME280;31849;55.992;37.252;2023-05-07T14:28:58;100285.44;;;10.97;22.04
46111;BME280;31849;55.992;37.252;2023-05-07T14:34:02;100285.56;;;11.07;22.03
46111;BME280;31849;55.992;37.252;2023-05-07T14:39:07;100285.59;;;11.12;22.01
46111;BME280;31849;55.992;37.252;2023-05-07T14:44:11;100278.63;;;11.06;22.06
46111;BME280;31849;55.992;37.252;2023-05-07T14:49:14;100283.78;;;11.00;22.13
46111;BME280;31849;55.992;37.252;2023-05-07T14:54:20;100280.97;;;10.80;22.42
46111;BME280;31849;55.992;37.252;2023-05-07T14:59:24;100285.31;;;10.81;22.19
46111;BME280;31849;55.992;37.252;2023-05-07T15:04:27;100282.72;;;10.81;22.06
46111;BME280;31849;55.992;37.252;2023-05-07T15:09:32;100279.19;;;10.78;22.01
46111;BME280;31849;55.992;37.252;2023-05-07T15:14:36;100295.69;;;10.77;22.09
46111;BME280;31849;55.992;37.252;2023-05-07T15:19:39;100288.59;;;10.62;22.31
46111;BME280;31849;55.992;37.252;2023-05-07T15:24:44;100284.31;;;10.68;22.47
46111;BME280;31849;55.992;37.252;2023-05-07T15:29:47;100293.75;;;10.57;22.37
46111;BME280;31849;55.992;37.252;2023-05-07T15:34:51;100291.94;;;10.50;22.86
46111;BME280;31849;55.992;37.252;2023-05-07T15:39:56;100302.13;;;10.34;23.08
46111;BME280;31849;55.992;37.252;2023-05-07T15:44:59;100305.41;;;10.23;23.30
46111;BME280;31849;55.992;37.252;2023-05-07T15:50:05;100310.53;;;10.15;24.17
46111;BME280;31849;55.992;37.252;2023-05-07T15:55:10;100320.13;;;10.19;23.99
46111;BME280;31849;55.992;37.252;2023-05-07T16:00:15;100317.41;;;10.10;24.54
46111;BME280;31849;55.992;37.252;2023-05-07T16:05:20;100321.69;;;10.08;24.35
46111;BME280;31849;55.992;37.252;2023-05-07T16:10:25;100313.84;;;10.04;24.55
46111;BME280;31849;55.992;37.252;2023-05-07T16:15:28;100313.97;;;10.14;24.00
46111;BME280;31849;55.992;37.252;2023-05-07T16:20:32;100313.91;;;10.08;24.19
46111;BME280;31849;55.992;37.252;2023-05-07T16:25:37;100315.59;;;10.04;24.25
46111;BME280;31849;55.992;37.252;2023-05-07T16:30:41;100313.69;;;9.92;24.32
46111;BME280;31849;55.992;37.252;2023-05-07T16:35:50;100311.88;;;9.85;25.12
46111;BME280;31849;55.992;37.252;2023-05-07T16:40:55;100320.38;;;9.76;24.84
46111;BME280;31849;55.992;37.252;2023-05-07T16:45:58;100322.78;;;9.61;25.08
46111;BME280;31849;55.992;37.252;2023-05-07T16:51:02;100332.09;;;9.48;25.31
46111;BME280;31849;55.992;37.252;2023-05-07T16:56:07;100335.25;;;9.30;25.60
46111;BME280;31849;55.992;37.252;2023-05-07T17:01:11;100332.97;;;8.98;26.82
46111;BME280;31849;55.992;37.252;2023-05-07T17:06:16;100340.22;;;8.69;26.91
46111;BME280;31849;55.992;37.252;2023-05-07T17:11:21;100349.25;;;8.45;28.00
46111;BME280;31849;55.992;37.252;2023-05-07T17:16:24;100346.31;;;8.31;27.37
46111;BME280;31849;55.992;37.252;2023-05-07T17:21:28;100354.44;;;8.07;28.65
46111;BME280;31849;55.992;37.252;2023-05-07T17:26:33;100359.94;;;7.81;28.06
46111;BME280;31849;55.992;37.252;2023-05-07T17:31:37;100364.38;;;7.50;28.98
46111;BME280;31849;55.992;37.252;2023-05-07T17:36:41;100365.34;;;7.20;30.15
46111;BME280;31849;55.992;37.252;2023-05-07T17:41:45;100356.81;;;6.91;30.80
46111;BME280;31849;55.992;37.252;2023-05-07T17:46:49;100374.88;;;6.58;31.91
46111;BME280;31849;55.992;37.252;2023-05-07T17:51:52;100376.19;;;6.43;30.64
46111;BME280;31849;55.992;37.252;2023-05-07T17:56:58;100376.78;;;6.34;31.17
46111;BME280;31849;55.992;37.252;2023-05-07T18:02:01;100378.25;;;6.26;30.17
46111;BME280;31849;55.992;37.252;2023-05-07T18:07:05;100376.16;;;6.14;32.24
46111;BME280;31849;55.992;37.252;2023-05-07T18:12:10;100379.25;;;6.03;33.22
46111;BME280;31849;55.992;37.252;2023-05-07T18:17:13;100373.50;;;5.84;33.83
46111;BME280;31849;55.992;37.252;2023-05-07T18:22:17;100393.91;;;5.76;35.39
46111;BME280;31849;55.992;37.252;2023-05-07T18:27:22;100391.66;;;5.60;35.91
46111;BME280;31849;55.992;37.252;2023-05-07T18:32:25;100360.38;;;5.23;34.67
46111;BME280;31849;55.992;37.252;2023-05-07T18:37:29;100401.09;;;5.34;35.20
46111;BME280;31849;55.992;37.252;2023-05-07T18:42:34;100399.03;;;5.23;35.92
46111;BME280;31849;55.992;37.252;2023-05-07T18:47:38;100401.97;;;5.08;36.36
46111;BME280;31849;55.992;37.252;2023-05-07T18:52:41;100410.63;;;4.86;36.59
46111;BME280;31849;55.992;37.252;2023-05-07T18:57:46;100411.50;;;4.87;36.24
46111;BME280;31849;55.992;37.252;2023-05-07T19:02:49;100405.31;;;4.82;35.37
46111;BME280;31849;55.992;37.252;2023-05-07T19:07:53;100405.66;;;4.67;37.63
46111;BME280;31849;55.992;37.252;2023-05-07T19:12:58;100417.28;;;4.57;37.76
46111;BME280;31849;55.992;37.252;2023-05-07T19:18:01;100411.66;;;4.43;37.15
46111;BME280;31849;55.992;37.252;2023-05-07T19:23:05;100408.00;;;4.15;39.25
46111;BME280;31849;55.992;37.252;2023-05-07T19:28:12;100417.19;;;4.09;40.22
46111;BME280;31849;55.992;37.252;2023-05-07T19:33:15;100423.56;;;3.96;39.80
46111;BME280;31849;55.992;37.252;2023-05-07T19:38:18;100423.13;;;3.85;40.67
46111;BME280;31849;55.992;37.252;2023-05-07T19:43:24;100432.03;;;3.72;41.75
46111;BME280;31849;55.992;37.252;2023-05-07T19:48:27;100430.59;;;3.58;41.92
46111;BME280;31849;55.992;37.252;2023-05-07T19:53:31;100440.38;;;3.45;42.17
46111;BME280;31849;55.992;37.252;2023-05-07T19:58:36;100434.53;;;3.28;42.83
46111;BME280;31849;55.992;37.252;2023-05-07T20:03:40;100441.16;;;3.23;42.68
46111;BME280;31849;55.992;37.252;2023-05-07T20:08:44;100438.88;;;3.10;42.96
46111;BME280;31849;55.992;37.252;2023-05-07T20:13:49;100448.81;;;3.02;43.54
46111;BME280;31849;55.992;37.252;2023-05-07T20:18:52;100454.28;;;2.90;42.27
46111;BME280;31849;55.992;37.252;2023-05-07T20:23:56;100455.72;;;2.84;43.57
46111;BME280;31849;55.992;37.252;2023-05-07T20:29:01;100458.06;;;2.79;43.83
46111;BME280;31849;55.992;37.252;2023-05-07T20:34:05;100466.84;;;2.64;43.87
46111;BME280;31849;55.992;37.252;2023-05-07T20:39:09;100472.84;;;2.65;44.14
46111;BME280;31849;55.992;37.252;2023-05-07T20:44:18;100481.06;;;2.58;44.29
46111;BME280;31849;55.992;37.252;2023-05-07T20:49:21;100481.00;;;2.56;43.82
46111;BME280;31849;55.992;37.252;2023-05-07T20:54:24;100489.81;;;2.43;44.72
46111;BME280;31849;55.992;37.252;2023-05-07T20:59:30;100488.66;;;2.37;45.13
46111;BME280;31849;55.992;37.252;2023-05-07T21:04:35;100494.59;;;2.36;45.18
46111;BME280;31849;55.992;37.252;2023-05-07T21:09:39;100484.69;;;2.25;45.18
46111;BME280;31849;55.992;37.252;2023-05-07T21:14:44;100490.50;;;2.21;45.58
46111;BME280;31849;55.992;37.252;2023-05-07T21:19:48;100497.09;;;2.16;44.08
46111;BME280;31849;55.992;37.252;2023-05-07T21:24:51;100497.97;;;1.99;45.53
46111;BME280;31849;55.992;37.252;2023-05-07T21:29:56;100507.91;;;1.92;46.72
46111;BME280;31849;55.992;37.252;2023-05-07T21:35:08;100509.19;;;1.83;46.96
46111;BME280;31849;55.992;37.252;2023-05-07T21:40:12;100515.66;;;1.76;47.14
46111;BME280;31849;55.992;37.252;2023-05-07T21:45:17;100518.94;;;1.73;47.66
46111;BME280;31849;55.992;37.252;2023-05-07T21:50:21;100520.50;;;1.70;47.42
46111;BME280;31849;55.992;37.252;2023-05-07T21:55:25;100530.53;;;1.65;47.96
46111;BME280;31849;55.992;37.252;2023-05-07T22:00:30;100528.38;;;1.56;48.47
46111;BME280;31849;55.992;37.252;2023-05-07T22:05:34;100529.56;;;1.47;48.51
46111;BME280;31849;55.992;37.252;2023-05-07T22:10:37;100529.34;;;1.42;48.93
46111;BME280;31849;55.992;37.252;2023-05-07T22:15:42;100523.41;;;1.43;48.88
46111;BME280;31849;55.992;37.252;2023-05-07T22:20:59;100528.47;;;1.42;48.54
46111;BME280;31849;55.992;37.252;2023-05-07T22:26:09;100532.88;;;1.44;49.15
46111;BME280;31849;55.992;37.252;2023-05-07T22:31:14;100531.97;;;1.44;49.02
46111;BME280;31849;55.992;37.252;2023-05-07T22:36:17;100540.28;;;1.39;47.76
46111;BME280;31849;55.992;37.252;2023-05-07T22:41:20;100544.72;;;1.26;48.89
46111;BME280;31849;55.992;37.252;2023-05-07T22:46:26;100545.97;;;1.01;49.12
46111;BME280;31849;55.992;37.252;2023-05-07T22:51:29;100542.38;;;0.97;49.41
46111;BME280;31849;55.992;37.252;2023-05-07T22:56:33;100545.19;;;1.02;49.16
46111;BME280;31849;55.992;37.252;2023-05-07T23:01:38;100545.09;;;1.00;49.06
46111;BME280;31849;55.992;37.252;2023-05-07T23:06:42;100546.94;;;1.03;49.54
46111;BME280;31849;55.992;37.252;2023-05-07T23:11:45;100543.50;;;1.02;48.97
46111;BME280;31849;55.992;37.252;2023-05-07T23:16:50;100551.16;;;1.02;49.50
46111;BME280;31849;55.992;37.252;2023-05-07T23:21:54;100547.56;;;0.99;50.19
46111;BME280;31849;55.992;37.252;2023-05-07T23:26:57;100551.75;;;0.97;49.60
46111;BME280;31849;55.992;37.252;2023-05-07T23:32:02;100545.56;;;0.93;50.21
46111;BME280;31849;55.992;37.252;2023-05-07T23:37:07;100545.88;;;0.83;50.13
46111;BME280;31849;55.992;37.252;2023-05-07T23:42:11;100545.13;;;0.69;50.51
46111;BME280;31849;55.992;37.252;2023-05-07T23:47:16;100537.91;;;0.62;50.55
46111;BME280;31849;55.992;37.252;2023-05-07T23:52:20;100539.75;;;0.64;50.18
46111;BME280;31849;55.992;37.252;2023-05-07T23:57:23;100545.75;;;0.65;50.87
